Carnival Freedom — 3EBL5 — position and weather

sailwx.info

Track history (hours):
 
Tides and Currents Weather Stations Pressure Air Temp Water Temp Dewpoint Dewpoint Depression Visibility Wind Speed Wind Dir Waves Ship Positions

Carnival Freedom

Last reported at 2018-Sep-21 12:00 UTC. Time now 2018-Sep-22 07:39 UTC.
Position N 24°00' W 088°06'.

Type: Ship. MMSI: 371154000.

Wind from 180 at 10 knots

Barometer 1015.0 mb
Air temperature 27.8 ° C
Visibility: greater than 5.4 NM
Dewpoint 23.5 ° C
Water temperature 29.0 ° C

Date/timePositionNaut miles runAvg speedWind from/ knotsBaromVisibWave heightAir tempDewpointWater temp
2018-Sep-21 12:00N 24°00' W 088°06'21217.3 180 / 101015.0 5.4 27.823.529.0
2018-Sep-20 23:44N 20°39' W 086°54'521.3
2018-Sep-20 23:30N 20°34' W 086°57'4 7.7
2018-Sep-20 23:01N 20°31' W 086°57'0 0.0
2018-Sep-20 22:58N 20°31' W 086°57'0 0.0
2018-Sep-20 22:28N 20°31' W 086°57'0 0.0
2018-Sep-20 21:58N 20°31' W 086°57'0 0.0
2018-Sep-20 21:28N 20°31' W 086°57'0 0.0
2018-Sep-20 20:58N 20°31' W 086°57'0 0.0
2018-Sep-20 20:28N 20°31' W 086°57'0 0.0
2018-Sep-20 19:58N 20°31' W 086°57'0 0.0
2018-Sep-20 19:28N 20°31' W 086°57'0 0.0
2018-Sep-20 18:58N 20°31' W 086°57'0 0.0
2018-Sep-20 18:28N 20°31' W 086°57'0 0.0
2018-Sep-20 18:01N 20°31' W 086°57'0 0.0
2018-Sep-20 17:58N 20°31' W 086°57'0 0.0
2018-Sep-20 17:28N 20°31' W 086°57'0 0.0
2018-Sep-20 17:01N 20°31' W 086°57'0 0.0
2018-Sep-20 16:58N 20°31' W 086°57'0 0.0
2018-Sep-20 16:28N 20°31' W 086°57'0 0.0
2018-Sep-20 16:01N 20°31' W 086°57'0 0.0
2018-Sep-20 15:58N 20°31' W 086°57'0 0.0
2018-Sep-20 15:28N 20°31' W 086°57'0 0.0
2018-Sep-20 15:01N 20°31' W 086°57'0 0.0
2018-Sep-20 14:58N 20°31' W 086°57'0 0.3
2018-Sep-20 14:30N 20°31' W 086°57'3 6.9
2018-Sep-20 14:00N 20°34' W 086°56'713.5
2018-Sep-20 13:30N 20°39' W 086°51'  
2018-Sep-17 12:00N 21°24' W 085°00'54518.9 140 / 101011.0 5.4 28.725.629.0
2018-Sep-16 07:11N 27°36' W 092°17'1 3.6
2018-Sep-16 07:00N 27°36' W 092°18'930.7 240 / 101012.910.8 28.022.129.0
2018-Sep-16 06:41N 27°42' W 092°26'1119.7
2018-Sep-16 06:08N 27°50' W 092°34'3419.6
2018-Sep-16 04:25N 28°16' W 092°58'819.6
2018-Sep-16 04:00N 28°21' W 093°06'1119.4
2018-Sep-16 03:27N 28°27' W 093°16'719.2
2018-Sep-16 03:03N 28°31' W 093°23'119.1
2018-Sep-16 03:00N 28°32' W 093°24'918.9
2018-Sep-16 02:30N 28°38' W 093°33'818.3
2018-Sep-16 02:03N 28°43' W 093°40'118.0
2018-Sep-16 02:00N 28°43' W 093°41'918.2
2018-Sep-16 01:30N 28°48' W 093°49'818.0
2018-Sep-16 01:03N 28°53' W 093°57'118.2
2018-Sep-16 01:00N 28°53' W 093°58'917.7
2018-Sep-16 00:29N 28°59' W 094°07'717.3
2018-Sep-16 00:03N 29°03' W 094°13'117.3
2018-Sep-16 00:00N 29°03' W 094°14'917.3
2018-Sep-15 23:30N 29°08' W 094°23'817.0
2018-Sep-15 23:03N 29°12' W 094°30'117.4
2018-Sep-15 23:00N 29°12' W 094°31'815.8
2018-Sep-15 22:31N 29°17' W 094°38'511.9
2018-Sep-15 22:03N 29°21' W 094°43'115.0
2018-Sep-15 22:00N 29°21' W 094°44'3 6.8
2018-Sep-15 21:30N 29°19' W 094°47'1 1.9
2018-Sep-15 21:03N 29°19' W 094°48'0 0.0
2018-Sep-15 21:00N 29°19' W 094°48'0 0.0
2018-Sep-15 20:30N 29°19' W 094°48'0 0.0
2018-Sep-15 20:03N 29°19' W 094°48'0 0.1
2018-Sep-15 20:00N 29°19' W 094°48'0 0.0
2018-Sep-15 19:29N 29°19' W 094°48'0 0.0
2018-Sep-15 19:02N 29°19' W 094°48'0 0.1
2018-Sep-15 18:59N 29°19' W 094°48'0 0.0
2018-Sep-15 18:30N 29°19' W 094°48'0 0.0
2018-Sep-15 18:01N 29°19' W 094°48'0 0.1
2018-Sep-15 17:58N 29°19' W 094°48'0 0.0
2018-Sep-15 17:28N 29°19' W 094°48'0 0.0
2018-Sep-15 17:01N 29°19' W 094°48'0 0.0
2018-Sep-15 16:58N 29°19' W 094°48'0 0.0
2018-Sep-15 16:28N 29°19' W 094°48'0 0.0
2018-Sep-15 16:01N 29°19' W 094°48'0 0.0
2018-Sep-15 15:58N 29°19' W 094°48'0 0.0
2018-Sep-15 15:28N 29°19' W 094°48'0 0.0
2018-Sep-15 15:00N 29°19' W 094°48'0 0.0
2018-Sep-15 14:30N 29°19' W 094°48'0 0.0
2018-Sep-15 14:00N 29°19' W 094°48'0 0.0
2018-Sep-15 13:30N 29°19' W 094°48'0 0.0
2018-Sep-15 13:03N 29°19' W 094°48'0 0.0
2018-Sep-15 13:00N 29°19' W 094°48'0 0.2
2018-Sep-15 12:30N 29°19' W 094°48'3 6.9
2018-Sep-15 12:03N 29°21' W 094°45'112.8
2018-Sep-15 11:59N 29°21' W 094°44'613.4
2018-Sep-15 11:31N 29°18' W 094°37'511.8
2018-Sep-15 11:03N 29°15' W 094°32'2814.8
2018-Sep-15 09:08N 28°58' W 094°06'117.1
2018-Sep-15 09:03N 28°57' W 094°05'117.0
2018-Sep-15 09:00N 28°57' W 094°04'917.2
2018-Sep-15 08:29N 28°52' W 093°56'4 8.8
2018-Sep-15 08:00N 28°48' W 093°54'61550.0 140 / 111012.910.8 28.023.729.0
2018-Sep-15 07:59N 28°48' W 093°47'817.2
2018-Sep-15 07:30N 28°43' W 093°39'1117.2
2018-Sep-15 06:53N 28°36' W 093°30'616.9
2018-Sep-15 06:30N 28°33' W 093°24'41917.8
2018-Sep-14 07:00N 25°24' W 086°24'32417.1 080 / 121013.910.8 28.022.129.0
2018-Sep-13 12:00N 24°36' W 080°30'8416.7 030 / 71014.010.8 28.423.529.0
2018-Sep-13 06:59N 25°37' W 079°27'918.3
2018-Sep-13 06:30N 25°46' W 079°24'4 7.3
2018-Sep-13 06:00N 25°42' W 079°24'97 4.1 100 / 81012.910.8 27.019.329.0
2018-Sep-12 06:00N 25°48' W 077°36'   010 / 51013.910.8 28.020.530.0
Track history (hours):
 
Tides and Currents Weather Stations Pressure Air Temp Water Temp Dewpoint Dewpoint Depression Visibility Wind Speed Wind Dir Waves Ship Positions

Carnival Freedom

Last reported at 2018-Sep-21 12:00 UTC. Time now 2018-Sep-22 07:39 UTC.
Position N 24°00' W 088°06'.

Type: Ship. MMSI: 371154000.

Wind from 180 at 10 knots

Barometer 1015.0 mb
Air temperature 27.8 ° C
Visibility: greater than 5.4 NM
Dewpoint 23.5 ° C
Water temperature 29.0 ° C

Date/timePositionNaut miles runAvg speedWind from/ knotsBaromVisibWave heightAir tempDewpointWater temp
2018-Sep-21 12:00N 24°00' W 088°06'21217.3 180 / 101015.0 5.4 27.823.529.0
2018-Sep-20 23:44N 20°39' W 086°54'521.3
2018-Sep-20 23:30N 20°34' W 086°57'4 7.7
2018-Sep-20 23:01N 20°31' W 086°57'0 0.0
2018-Sep-20 22:58N 20°31' W 086°57'0 0.0
2018-Sep-20 22:28N 20°31' W 086°57'0 0.0
2018-Sep-20 21:58N 20°31' W 086°57'0 0.0
2018-Sep-20 21:28N 20°31' W 086°57'0 0.0
2018-Sep-20 20:58N 20°31' W 086°57'0 0.0
2018-Sep-20 20:28N 20°31' W 086°57'0 0.0
2018-Sep-20 19:58N 20°31' W 086°57'0 0.0
2018-Sep-20 19:28N 20°31' W 086°57'0 0.0
2018-Sep-20 18:58N 20°31' W 086°57'0 0.0
2018-Sep-20 18:28N 20°31' W 086°57'0 0.0
2018-Sep-20 18:01N 20°31' W 086°57'0 0.0
2018-Sep-20 17:58N 20°31' W 086°57'0 0.0
2018-Sep-20 17:28N 20°31' W 086°57'0 0.0
2018-Sep-20 17:01N 20°31' W 086°57'0 0.0
2018-Sep-20 16:58N 20°31' W 086°57'0 0.0
2018-Sep-20 16:28N 20°31' W 086°57'0 0.0
2018-Sep-20 16:01N 20°31' W 086°57'0 0.0
2018-Sep-20 15:58N 20°31' W 086°57'0 0.0
2018-Sep-20 15:28N 20°31' W 086°57'0 0.0
2018-Sep-20 15:01N 20°31' W 086°57'0 0.0
2018-Sep-20 14:58N 20°31' W 086°57'0 0.3
2018-Sep-20 14:30N 20°31' W 086°57'3 6.9
2018-Sep-20 14:00N 20°34' W 086°56'713.5
2018-Sep-20 13:30N 20°39' W 086°51'  
2018-Sep-17 12:00N 21°24' W 085°00'54518.9 140 / 101011.0 5.4 28.725.629.0
2018-Sep-16 07:11N 27°36' W 092°17'1 3.6
2018-Sep-16 07:00N 27°36' W 092°18'930.7 240 / 101012.910.8 28.022.129.0
2018-Sep-16 06:41N 27°42' W 092°26'1119.7
2018-Sep-16 06:08N 27°50' W 092°34'3419.6
2018-Sep-16 04:25N 28°16' W 092°58'819.6
2018-Sep-16 04:00N 28°21' W 093°06'1119.4
2018-Sep-16 03:27N 28°27' W 093°16'719.2
2018-Sep-16 03:03N 28°31' W 093°23'119.1
2018-Sep-16 03:00N 28°32' W 093°24'918.9
2018-Sep-16 02:30N 28°38' W 093°33'818.3
2018-Sep-16 02:03N 28°43' W 093°40'118.0
2018-Sep-16 02:00N 28°43' W 093°41'918.2
2018-Sep-16 01:30N 28°48' W 093°49'818.0
2018-Sep-16 01:03N 28°53' W 093°57'118.2
2018-Sep-16 01:00N 28°53' W 093°58'917.7
2018-Sep-16 00:29N 28°59' W 094°07'717.3
2018-Sep-16 00:03N 29°03' W 094°13'117.3
2018-Sep-16 00:00N 29°03' W 094°14'917.3
2018-Sep-15 23:30N 29°08' W 094°23'817.0
2018-Sep-15 23:03N 29°12' W 094°30'117.4
2018-Sep-15 23:00N 29°12' W 094°31'815.8
2018-Sep-15 22:31N 29°17' W 094°38'511.9
2018-Sep-15 22:03N 29°21' W 094°43'115.0
2018-Sep-15 22:00N 29°21' W 094°44'3 6.8
2018-Sep-15 21:30N 29°19' W 094°47'1 1.9
2018-Sep-15 21:03N 29°19' W 094°48'0 0.0
2018-Sep-15 21:00N 29°19' W 094°48'0 0.0
2018-Sep-15 20:30N 29°19' W 094°48'0 0.0
2018-Sep-15 20:03N 29°19' W 094°48'0 0.1
2018-Sep-15 20:00N 29°19' W 094°48'0 0.0
2018-Sep-15 19:29N 29°19' W 094°48'0 0.0
2018-Sep-15 19:02N 29°19' W 094°48'0 0.1
2018-Sep-15 18:59N 29°19' W 094°48'0 0.0
2018-Sep-15 18:30N 29°19' W 094°48'0 0.0
2018-Sep-15 18:01N 29°19' W 094°48'0 0.1
2018-Sep-15 17:58N 29°19' W 094°48'0 0.0
2018-Sep-15 17:28N 29°19' W 094°48'0 0.0
2018-Sep-15 17:01N 29°19' W 094°48'0 0.0
2018-Sep-15 16:58N 29°19' W 094°48'0 0.0
2018-Sep-15 16:28N 29°19' W 094°48'0 0.0
2018-Sep-15 16:01N 29°19' W 094°48'0 0.0
2018-Sep-15 15:58N 29°19' W 094°48'0 0.0
2018-Sep-15 15:28N 29°19' W 094°48'0 0.0
2018-Sep-15 15:00N 29°19' W 094°48'0 0.0
2018-Sep-15 14:30N 29°19' W 094°48'0 0.0
2018-Sep-15 14:00N 29°19' W 094°48'0 0.0
2018-Sep-15 13:30N 29°19' W 094°48'0 0.0
2018-Sep-15 13:03N 29°19' W 094°48'0 0.0
2018-Sep-15 13:00N 29°19' W 094°48'0 0.2
2018-Sep-15 12:30N 29°19' W 094°48'3 6.9
2018-Sep-15 12:03N 29°21' W 094°45'112.8
2018-Sep-15 11:59N 29°21' W 094°44'613.4
2018-Sep-15 11:31N 29°18' W 094°37'511.8
2018-Sep-15 11:03N 29°15' W 094°32'2814.8
2018-Sep-15 09:08N 28°58' W 094°06'117.1
2018-Sep-15 09:03N 28°57' W 094°05'117.0
2018-Sep-15 09:00N 28°57' W 094°04'917.2
2018-Sep-15 08:29N 28°52' W 093°56'4 8.8
2018-Sep-15 08:00N 28°48' W 093°54'61550.0 140 / 111012.910.8 28.023.729.0
2018-Sep-15 07:59N 28°48' W 093°47'817.2
2018-Sep-15 07:30N 28°43' W 093°39'1117.2
2018-Sep-15 06:53N 28°36' W 093°30'616.9
2018-Sep-15 06:30N 28°33' W 093°24'41917.8
2018-Sep-14 07:00N 25°24' W 086°24'32417.1 080 / 121013.910.8 28.022.129.0
2018-Sep-13 12:00N 24°36' W 080°30'8416.7 030 / 71014.010.8 28.423.529.0
2018-Sep-13 06:59N 25°37' W 079°27'918.3
2018-Sep-13 06:30N 25°46' W 079°24'4 7.3
2018-Sep-13 06:00N 25°42' W 079°24'97 4.1 100 / 81012.910.8 27.019.329.0
2018-Sep-12 06:00N 25°48' W 077°36'   010 / 51013.910.8 28.020.530.0

Dump ship's entire track history